createdAt,value
2023-01-27T00:03:25.062Z,75.36
2023-01-27T00:08:28.213Z,75.42
2023-01-27T00:13:31.891Z,75.33
2023-01-27T00:18:33.233Z,75.34
2023-01-27T00:23:52.895Z,75.17
2023-01-27T00:28:54.250Z,75.41
2023-01-27T00:34:01.749Z,75.49
2023-01-27T00:39:04.295Z,75.27
2023-01-27T00:44:06.019Z,75.53
2023-01-27T00:49:07.702Z,75.54
2023-01-27T00:54:09.154Z,75.70
2023-01-27T00:59:10.520Z,76.14
2023-01-27T01:04:11.889Z,75.45
2023-01-27T01:09:13.238Z,75.92
2023-01-27T01:14:14.697Z,75.97
2023-01-27T01:19:16.002Z,76.18
2023-01-27T01:24:17.741Z,75.94
2023-01-27T01:29:19.145Z,76.28
2023-01-27T01:34:20.470Z,76.28
2023-01-27T01:39:21.786Z,76.22
2023-01-27T01:44:26.376Z,76.02
2023-01-27T01:49:39.223Z,75.81
2023-01-27T01:54:48.454Z,75.67
2023-01-27T02:00:01.744Z,75.79
2023-01-27T02:05:11.262Z,75.92
2023-01-27T02:10:13.215Z,75.94
2023-01-27T02:15:15.282Z,75.98
2023-01-27T02:20:43.587Z,75.46
2023-01-27T02:25:53.066Z,75.70
2023-01-27T02:30:54.513Z,76.47
2023-01-27T02:36:03.118Z,76.09
2023-01-27T02:41:40.489Z,76.02
2023-01-27T02:46:41.828Z,76.13
2023-01-27T02:51:43.331Z,76.13
2023-01-27T02:56:44.651Z,76.10
2023-01-27T03:01:46.062Z,76.32
2023-01-27T03:06:47.450Z,76.21
2023-01-27T03:12:07.475Z,76.02
2023-01-27T03:17:27.260Z,76.16
2023-01-27T03:22:28.662Z,76.27
2023-01-27T03:27:30.032Z,76.19
2023-01-27T03:32:32.557Z,76.27
2023-01-27T03:37:52.321Z,76.17
2023-01-27T03:43:12.634Z,75.95
2023-01-27T03:48:14.163Z,76.19
2023-01-27T03:53:15.486Z,76.11
2023-01-27T03:58:28.339Z,76.09
2023-01-27T04:03:51.141Z,76.00
2023-01-27T04:08:52.611Z,76.14
2023-01-27T04:13:54.071Z,76.14
2023-01-27T04:18:56.836Z,75.89
2023-01-27T04:23:58.457Z,75.87
2023-01-27T04:29:00.976Z,75.43
2023-01-27T04:34:02.337Z,75.72
2023-01-27T04:39:03.809Z,75.67
2023-01-27T04:44:06.059Z,75.63
2023-01-27T04:49:08.061Z,75.65
2023-01-27T04:54:09.428Z,75.56
2023-01-27T04:59:12.718Z,75.64
2023-01-27T05:04:14.077Z,75.79
2023-01-27T05:09:15.446Z,75.92
2023-01-27T05:14:16.847Z,75.69
2023-01-27T05:19:18.220Z,76.04
2023-01-27T05:24:19.551Z,76.08
2023-01-27T05:29:21.026Z,75.77
2023-01-27T05:34:22.736Z,76.27
2023-01-27T05:39:24.088Z,75.48
2023-01-27T05:44:25.437Z,75.98
2023-01-27T05:49:26.795Z,75.73
2023-01-27T05:54:28.252Z,75.68
2023-01-27T05:59:29.572Z,75.62
2023-01-27T06:04:30.969Z,76.11
2023-01-27T06:09:32.306Z,75.86
2023-01-27T06:14:33.660Z,75.83
2023-01-27T06:19:34.967Z,75.91
2023-01-27T06:24:36.335Z,75.92
2023-01-27T06:29:37.727Z,76.04
2023-01-27T06:34:39.691Z,75.99
2023-01-27T06:39:41.054Z,76.12
2023-01-27T06:44:42.377Z,76.46
2023-01-27T06:49:43.744Z,76.36
2023-01-27T06:54:45.139Z,75.83
2023-01-27T06:59:46.514Z,76.13
2023-01-27T07:04:48.275Z,76.14
2023-01-27T07:09:52.633Z,75.96
2023-01-27T07:14:54.414Z,75.78
2023-01-27T07:19:55.759Z,76.20
2023-01-27T07:24:57.312Z,75.77
2023-01-27T07:29:58.634Z,75.42
2023-01-27T07:34:59.951Z,75.09
2023-01-27T07:40:01.291Z,75.50
2023-01-27T07:45:02.730Z,75.25
2023-01-27T07:50:04.362Z,75.23
2023-01-27T07:55:06.263Z,75.29
2023-01-27T08:00:08.086Z,75.35
2023-01-27T08:05:09.395Z,75.63
2023-01-27T08:10:11.400Z,75.49
2023-01-27T08:15:14.042Z,75.65
2023-01-27T08:20:15.757Z,75.61
2023-01-27T08:25:17.250Z,75.08
2023-01-27T08:30:19.678Z,74.94
2023-01-27T08:35:21.128Z,75.35
2023-01-27T08:40:22.549Z,75.32
2023-01-27T08:45:23.964Z,75.76
2023-01-27T08:50:25.431Z,75.45
2023-01-27T08:55:31.244Z,74.90
2023-01-27T09:00:32.582Z,75.22
2023-01-27T09:05:35.714Z,75.09
2023-01-27T09:10:39.523Z,74.77
2023-01-27T09:15:40.939Z,75.44
2023-01-27T09:20:42.277Z,74.65
2023-01-27T09:25:43.648Z,74.69
2023-01-27T09:30:46.290Z,74.83
2023-01-27T09:35:57.922Z,74.42
2023-01-27T09:41:36.559Z,74.60
2023-01-27T09:47:13.408Z,74.43
2023-01-27T09:52:52.342Z,74.29
2023-01-27T09:58:10.044Z,73.88
2023-01-27T10:03:37.004Z,74.07
2023-01-27T10:08:59.628Z,74.65
2023-01-27T10:14:26.185Z,74.10
2023-01-27T10:19:48.728Z,73.90
2023-01-27T10:25:28.767Z,74.27
2023-01-27T10:30:34.978Z,73.48
2023-01-27T10:35:58.002Z,73.35
2023-01-27T10:41:27.146Z,73.76
2023-01-27T10:46:56.389Z,73.91
2023-01-27T10:52:05.565Z,73.79
2023-01-27T10:57:17.735Z,73.21
2023-01-27T11:02:32.094Z,72.95
2023-01-27T11:07:46.052Z,73.10
2023-01-27T11:12:51.206Z,72.66
2023-01-27T11:18:10.774Z,72.31
2023-01-27T11:23:21.082Z,72.80
2023-01-27T11:28:42.579Z,72.27
2023-01-27T11:33:46.701Z,72.76
2023-01-27T11:38:48.127Z,71.91
2023-01-27T11:43:50.033Z,71.71
2023-01-27T11:48:56.735Z,72.44
2023-01-27T11:54:15.563Z,72.32
2023-01-27T11:59:32.648Z,72.42
2023-01-27T12:05:01.373Z,71.66
2023-01-27T12:10:03.717Z,71.90
2023-01-27T12:15:05.474Z,71.73
2023-01-27T12:20:32.115Z,72.20
2023-01-27T12:25:46.025Z,71.44
2023-01-27T12:30:48.056Z,72.08
2023-01-27T12:35:50.507Z,71.49
2023-01-27T12:41:04.421Z,71.34
2023-01-27T12:46:19.918Z,71.58
2023-01-27T12:51:24.021Z,70.66
2023-01-27T12:56:25.749Z,70.88
2023-01-27T13:01:33.892Z,70.55
2023-01-27T13:06:43.312Z,70.99
2023-01-27T13:11:45.349Z,70.76
2023-01-27T13:16:55.042Z,70.41
2023-01-27T13:21:56.984Z,70.09
2023-01-27T13:27:00.649Z,70.86
2023-01-27T13:32:23.304Z,70.57
2023-01-27T13:37:48.074Z,69.63
2023-01-27T13:43:10.530Z,69.85
2023-01-27T13:48:26.158Z,69.61
2023-01-27T13:53:27.611Z,70.84
2023-01-27T13:59:19.829Z,70.29
2023-01-27T14:04:55.889Z,69.81
2023-01-27T14:10:23.790Z,70.20
2023-01-27T14:15:51.910Z,70.05
2023-01-27T14:21:14.115Z,69.96
2023-01-27T14:26:48.265Z,70.10
2023-01-27T14:32:04.579Z,70.02
2023-01-27T14:37:22.240Z,69.42
2023-01-27T14:42:41.244Z,69.05
2023-01-27T14:48:10.962Z,69.82
2023-01-27T14:53:34.587Z,69.41
2023-01-27T14:58:51.005Z,70.22
2023-01-27T15:04:25.431Z,69.91
2023-01-27T15:09:39.683Z,68.98
2023-01-27T15:15:03.189Z,69.53
2023-01-27T15:20:29.039Z,68.98
2023-01-27T15:25:44.373Z,69.34
2023-01-27T15:31:09.904Z,68.96
2023-01-27T15:36:32.296Z,69.57
2023-01-27T15:41:33.591Z,69.63
2023-01-27T15:46:37.371Z,69.13
2023-01-27T15:51:38.749Z,69.21
2023-01-27T15:56:47.686Z,69.75
2023-01-27T16:01:58.883Z,69.41
2023-01-27T16:07:02.921Z,69.21
2023-01-27T16:12:20.039Z,69.43
2023-01-27T16:17:25.677Z,69.33
2023-01-27T16:22:30.692Z,69.54
2023-01-27T16:27:51.507Z,69.02
2023-01-27T16:33:07.401Z,69.41
2023-01-27T16:38:24.324Z,69.19
2023-01-27T16:43:31.805Z,69.85
2023-01-27T16:48:45.080Z,69.44
2023-01-27T16:53:48.788Z,69.87
2023-01-27T16:58:51.790Z,69.74
2023-01-27T17:03:56.906Z,69.94
2023-01-27T17:08:59.287Z,69.92
2023-01-27T17:14:02.640Z,69.45
2023-01-27T17:19:21.190Z,69.90
2023-01-27T17:24:27.132Z,70.37
2023-01-27T17:30:03.716Z,70.28
2023-01-27T17:35:08.581Z,71.24
2023-01-27T17:40:18.286Z,71.08
2023-01-27T17:45:23.332Z,71.28
2023-01-27T17:50:31.460Z,70.66
2023-01-27T17:55:32.889Z,71.54
2023-01-27T18:00:42.463Z,71.00
2023-01-27T18:05:46.236Z,71.14
2023-01-27T18:10:47.661Z,70.60
2023-01-27T18:15:50.101Z,71.23
2023-01-27T18:20:57.367Z,71.11
2023-01-27T18:26:12.816Z,70.73
2023-01-27T18:31:22.331Z,71.08
2023-01-27T18:36:28.123Z,71.63
2023-01-27T18:41:32.722Z,71.10
2023-01-27T18:46:34.086Z,71.58
2023-01-27T18:51:35.419Z,70.61
2023-01-27T18:56:36.756Z,71.41
2023-01-27T19:01:38.139Z,71.31
2023-01-27T19:06:39.530Z,71.92
2023-01-27T19:11:40.937Z,71.58
2023-01-27T19:16:42.445Z,71.17
2023-01-27T19:21:43.782Z,70.67
2023-01-27T19:26:45.622Z,71.11
2023-01-27T19:31:47.002Z,71.07
2023-01-27T19:36:48.411Z,71.14
2023-01-27T19:41:49.787Z,71.44
2023-01-27T19:46:51.219Z,71.67
2023-01-27T19:51:53.491Z,71.35
2023-01-27T19:56:54.812Z,71.08
2023-01-27T20:01:56.930Z,71.53
2023-01-27T20:06:58.450Z,71.55
2023-01-27T20:12:00.813Z,70.75
2023-01-27T20:17:02.416Z,71.44
2023-01-27T20:22:03.776Z,71.13
2023-01-27T20:27:05.097Z,70.94
2023-01-27T20:32:09.346Z,71.40
2023-01-27T20:37:11.193Z,71.39
2023-01-27T20:42:12.598Z,70.90
2023-01-27T20:47:15.212Z,71.24
2023-01-27T20:52:16.576Z,71.23
2023-01-27T20:57:20.681Z,70.55
2023-01-27T21:02:22.030Z,70.97
2023-01-27T21:07:24.321Z,70.95
2023-01-27T21:12:27.217Z,70.91
2023-01-27T21:17:28.561Z,71.02
2023-01-27T21:22:29.888Z,71.37
2023-01-27T21:27:31.220Z,70.77
2023-01-27T21:32:32.550Z,70.89
2023-01-27T21:37:36.021Z,71.18
2023-01-27T21:42:55.676Z,70.69
2023-01-27T21:47:57.040Z,70.76
2023-01-27T21:52:58.429Z,71.50
2023-01-27T21:58:00.533Z,71.24
2023-01-27T22:03:03.735Z,70.63
2023-01-27T22:08:06.730Z,71.13
2023-01-27T22:13:10.521Z,71.25
2023-01-27T22:18:12.418Z,70.84
2023-01-27T22:23:13.788Z,71.13
2023-01-27T22:28:15.400Z,70.97
2023-01-27T22:33:16.841Z,70.92
2023-01-27T22:44:29.415Z,70.97
2023-01-27T22:49:30.992Z,70.98
2023-01-27T22:54:32.807Z,71.16
2023-01-27T23:00:09.470Z,71.32
2023-01-27T23:05:13.720Z,70.43
2023-01-27T23:10:16.386Z,71.54
2023-01-27T23:21:48.793Z,71.17
2023-01-27T23:33:25.031Z,71.58
2023-01-27T23:38:34.231Z,70.77
2023-01-27T23:43:38.753Z,71.26
2023-01-27T23:48:40.373Z,70.81
2023-01-27T23:53:42.384Z,70.96
2023-01-27T23:58:46.327Z,70.90
